createdAt,value
2023-05-03T00:01:46.095Z,1.30
2023-05-03T00:04:54.476Z,1.50
2023-05-03T00:08:02.484Z,1.30
2023-05-03T00:11:09.693Z,1.20
2023-05-03T00:14:16.694Z,1.38
2023-05-03T00:17:22.133Z,1.58
2023-05-03T00:20:27.996Z,1.60
2023-05-03T00:23:35.182Z,1.45
2023-05-03T00:26:40.619Z,1.40
2023-05-03T00:29:45.873Z,1.42
2023-05-03T00:32:51.786Z,1.20
2023-05-03T00:35:57.014Z,1.20
2023-05-03T00:39:03.968Z,1.10
2023-05-03T00:42:10.219Z,1.38
2023-05-03T00:45:15.423Z,1.17
2023-05-03T00:48:20.728Z,1.25
2023-05-03T00:51:25.973Z,1.38
2023-05-03T00:54:33.771Z,1.45
2023-05-03T00:57:38.726Z,1.55
2023-05-03T01:00:44.166Z,1.30
2023-05-03T01:03:50.801Z,1.40
2023-05-03T01:07:04.207Z,1.30
2023-05-03T01:13:49.305Z,1.60
2023-05-03T01:17:03.134Z,1.50
2023-05-03T01:20:11.398Z,1.25
2023-05-03T01:23:23.708Z,1.27
2023-05-03T01:26:31.166Z,1.20
2023-05-03T01:29:36.988Z,1.30
2023-05-03T01:32:51.965Z,1.20
2023-05-03T01:36:00.472Z,1.38
2023-05-03T01:39:12.390Z,1.33
2023-05-03T01:42:19.989Z,1.20
2023-05-03T01:45:30.699Z,1.13
2023-05-03T01:48:36.208Z,1.50
2023-05-03T01:51:42.114Z,1.35
2023-05-03T01:54:47.350Z,1.20
2023-05-03T01:57:53.942Z,1.27
2023-05-03T02:00:59.430Z,1.25
2023-05-03T02:04:05.281Z,1.08
2023-05-03T02:07:10.603Z,1.10
2023-05-03T02:10:16.393Z,1.10
2023-05-03T02:13:22.968Z,1.10
2023-05-03T02:16:29.332Z,1.23
2023-05-03T02:19:35.139Z,1.20
2023-05-03T02:22:40.535Z,1.13
2023-05-03T02:25:45.957Z,1.05
2023-05-03T02:28:52.840Z,0.90
2023-05-03T02:31:58.729Z,1.08
2023-05-03T02:35:04.049Z,1.33
2023-05-03T02:38:12.613Z,0.90
2023-05-03T02:41:22.007Z,1.30
2023-05-03T02:44:30.358Z,1.20
2023-05-03T02:47:45.106Z,1.05
2023-05-03T02:50:50.041Z,1.27
2023-05-03T02:53:55.752Z,1.10
2023-05-03T02:57:01.906Z,1.40
2023-05-03T03:00:11.681Z,1.40
2023-05-03T03:03:17.519Z,1.10
2023-05-03T03:06:23.150Z,1.20
2023-05-03T03:09:28.431Z,1.10
2023-05-03T03:12:34.366Z,1.00
2023-05-03T03:15:42.237Z,1.10
2023-05-03T03:18:47.606Z,0.95
2023-05-03T03:21:56.253Z,1.23
2023-05-03T03:25:03.025Z,1.20
2023-05-03T03:28:08.289Z,1.10
2023-05-03T03:31:15.986Z,1.10
2023-05-03T03:34:21.880Z,1.20
2023-05-03T03:37:27.478Z,1.20
2023-05-03T03:40:33.055Z,1.00
2023-05-03T03:43:40.709Z,1.30
2023-05-03T03:46:53.015Z,1.23
2023-05-03T03:49:58.227Z,1.38
2023-05-03T03:53:03.566Z,1.13
2023-05-03T03:56:09.398Z,1.15
2023-05-03T03:59:14.665Z,1.30
2023-05-03T04:02:22.676Z,1.38
2023-05-03T04:05:28.035Z,1.10
2023-05-03T04:08:33.565Z,1.10
2023-05-03T04:11:39.075Z,1.30
2023-05-03T04:14:45.928Z,1.20
2023-05-03T04:17:52.536Z,1.30
2023-05-03T04:20:58.027Z,1.35
2023-05-03T04:24:06.521Z,1.27
2023-05-03T04:27:11.769Z,1.27
2023-05-03T04:30:17.649Z,1.50
2023-05-03T04:33:30.104Z,1.20
2023-05-03T04:36:40.169Z,1.30
2023-05-03T04:39:49.408Z,1.00
2023-05-03T04:42:55.126Z,1.10
2023-05-03T04:46:00.935Z,1.00
2023-05-03T04:49:08.000Z,1.00
2023-05-03T04:52:14.597Z,1.40
2023-05-03T04:55:19.817Z,1.10
2023-05-03T04:58:25.459Z,0.98
2023-05-03T05:01:31.488Z,1.00
2023-05-03T05:04:41.630Z,1.10
2023-05-03T05:07:47.756Z,1.00
2023-05-03T05:10:56.097Z,1.10
2023-05-03T05:14:05.748Z,1.13
2023-05-03T05:17:12.491Z,1.10
2023-05-03T05:20:19.443Z,1.33
2023-05-03T05:23:27.949Z,1.00
2023-05-03T05:26:33.279Z,1.23
2023-05-03T05:29:38.810Z,1.52
2023-05-03T05:32:44.309Z,1.42
2023-05-03T05:35:52.683Z,1.67
2023-05-03T05:39:00.064Z,1.20
2023-05-03T05:42:05.470Z,1.10
2023-05-03T05:45:13.662Z,1.60
2023-05-03T05:48:20.383Z,1.20
2023-05-03T05:51:28.120Z,1.30
2023-05-03T05:54:33.440Z,1.02
2023-05-03T05:57:38.778Z,1.10
2023-05-03T06:00:45.213Z,0.93
2023-05-03T06:03:51.007Z,1.25
2023-05-03T06:06:57.919Z,1.30
2023-05-03T06:10:04.266Z,1.00
2023-05-03T06:13:12.115Z,1.00
2023-05-03T06:16:18.636Z,1.17
2023-05-03T06:19:24.739Z,0.88
2023-05-03T06:22:31.837Z,1.10
2023-05-03T06:25:37.807Z,1.40
2023-05-03T06:28:43.127Z,1.10
2023-05-03T06:31:48.274Z,1.60
2023-05-03T06:34:54.113Z,1.30
2023-05-03T06:38:03.434Z,1.00
2023-05-03T06:41:08.905Z,1.30
2023-05-03T06:44:14.959Z,1.60
2023-05-03T06:47:21.587Z,1.40
2023-05-03T06:50:27.055Z,1.00
2023-05-03T06:53:33.654Z,1.02
2023-05-03T06:56:38.985Z,1.63
2023-05-03T06:59:44.118Z,1.30
2023-05-03T07:02:49.565Z,2.45
2023-05-03T07:05:55.015Z,2.03
2023-05-03T07:09:01.589Z,1.40
2023-05-03T07:12:07.222Z,1.38
2023-05-03T07:15:13.914Z,1.45
2023-05-03T07:18:19.110Z,1.13
2023-05-03T07:21:24.473Z,1.80
2023-05-03T07:24:30.896Z,1.55
2023-05-03T07:27:36.125Z,1.35
2023-05-03T07:30:41.241Z,1.20
2023-05-03T07:33:46.536Z,1.25
2023-05-03T07:36:52.430Z,1.02
2023-05-03T07:39:59.026Z,1.70
2023-05-03T07:43:04.525Z,1.30
2023-05-03T07:46:11.248Z,1.05
2023-05-03T07:49:16.607Z,1.73
2023-05-03T07:52:21.964Z,1.45
2023-05-03T07:55:29.599Z,1.13
2023-05-03T07:58:40.248Z,1.08
2023-05-03T08:01:45.905Z,1.00
2023-05-03T08:04:51.288Z,0.90
2023-05-03T08:07:56.776Z,1.10
2023-05-03T08:11:03.725Z,1.00
2023-05-03T08:14:08.837Z,2.80
2023-05-03T08:17:14.197Z,1.10
2023-05-03T08:20:19.514Z,1.00
2023-05-03T08:23:25.847Z,1.05
2023-05-03T08:26:32.516Z,1.25
2023-05-03T08:29:38.406Z,1.05
2023-05-03T08:32:43.548Z,1.52
2023-05-03T08:35:49.379Z,1.00
2023-05-03T08:38:54.797Z,1.30
2023-05-03T08:42:01.861Z,1.02
2023-05-03T08:45:08.763Z,1.50
2023-05-03T08:48:15.754Z,1.27
2023-05-03T08:51:21.811Z,1.23
2023-05-03T08:54:27.409Z,1.13
2023-05-03T08:57:36.399Z,1.00
2023-05-03T09:00:45.047Z,1.40
2023-05-03T09:03:52.594Z,1.10
2023-05-03T09:07:09.540Z,1.00
2023-05-03T09:10:24.929Z,1.33
2023-05-03T09:13:34.429Z,0.88
2023-05-03T09:16:40.524Z,1.00
2023-05-03T09:19:52.990Z,0.90
2023-05-03T09:22:58.093Z,1.30
2023-05-03T09:26:02.954Z,0.90
2023-05-03T09:29:09.599Z,1.48
2023-05-03T09:32:15.849Z,1.02
2023-05-03T09:35:21.078Z,1.15
2023-05-03T09:38:30.310Z,1.60
2023-05-03T09:41:35.401Z,1.10
2023-05-03T09:44:48.819Z,2.15
2023-05-03T09:47:56.093Z,0.85
2023-05-03T09:51:01.373Z,1.10
2023-05-03T09:54:06.546Z,0.98
2023-05-03T09:57:14.789Z,1.20
2023-05-03T10:00:22.473Z,1.10
2023-05-03T10:03:33.745Z,1.00
2023-05-03T10:06:42.839Z,1.30
2023-05-03T10:09:49.519Z,0.98
2023-05-03T10:12:55.090Z,0.80
2023-05-03T10:16:07.054Z,1.58
2023-05-03T10:19:16.108Z,1.10
2023-05-03T10:22:21.576Z,0.90
2023-05-03T10:25:26.851Z,1.02
2023-05-03T10:28:32.140Z,1.10
2023-05-03T10:31:49.071Z,1.20
2023-05-03T10:35:00.176Z,1.20
2023-05-03T10:38:16.166Z,1.02
2023-05-03T10:41:27.590Z,0.90
2023-05-03T10:44:39.979Z,0.80
2023-05-03T10:47:46.806Z,0.88
2023-05-03T10:50:53.440Z,1.05
2023-05-03T10:54:01.077Z,1.10
2023-05-03T10:57:06.495Z,1.27
2023-05-03T11:00:16.634Z,1.05
2023-05-03T11:03:36.518Z,0.90
2023-05-03T11:06:42.909Z,1.05
2023-05-03T11:09:48.005Z,1.17
2023-05-03T11:12:53.160Z,1.30
2023-05-03T11:15:58.322Z,1.40
2023-05-03T11:19:05.510Z,1.20
2023-05-03T11:22:13.006Z,1.13
2023-05-03T11:25:18.585Z,1.08
2023-05-03T11:28:23.724Z,1.52
2023-05-03T11:31:29.021Z,1.10
2023-05-03T11:34:35.562Z,2.03
2023-05-03T11:37:40.904Z,1.13
2023-05-03T11:40:45.993Z,1.05
2023-05-03T11:44:00.528Z,1.10
2023-05-03T11:47:09.930Z,0.85
2023-05-03T11:50:16.833Z,1.10
2023-05-03T11:53:22.626Z,1.40
2023-05-03T11:56:28.091Z,0.90
2023-05-03T11:59:39.824Z,1.00
2023-05-03T12:02:45.890Z,1.27
2023-05-03T12:05:54.283Z,1.02
2023-05-03T12:09:00.118Z,1.15
2023-05-03T12:12:06.877Z,0.95
2023-05-03T12:15:16.439Z,1.17
2023-05-03T12:18:22.346Z,1.20
2023-05-03T12:21:54.145Z,0.80
2023-05-03T12:25:04.601Z,0.70
2023-05-03T12:31:20.469Z,0.98
2023-05-03T12:34:34.712Z,1.08
2023-05-03T12:37:43.616Z,1.00
2023-05-03T12:40:49.160Z,0.80
2023-05-03T12:43:54.353Z,0.70
2023-05-03T12:47:01.098Z,0.93
2023-05-03T12:50:11.989Z,1.67
2023-05-03T12:53:19.362Z,1.45
2023-05-03T12:56:25.699Z,1.00
2023-05-03T13:05:51.572Z,1.13
2023-05-03T13:09:02.783Z,1.10
2023-05-03T13:12:09.046Z,0.88
2023-05-03T13:15:14.379Z,0.95
2023-05-03T13:18:19.633Z,1.20
2023-05-03T13:21:24.765Z,1.17
2023-05-03T13:24:31.392Z,2.35
2023-05-03T13:27:36.471Z,0.98
2023-05-03T13:30:41.708Z,0.80
2023-05-03T13:33:46.892Z,0.80
2023-05-03T13:36:52.004Z,0.80
2023-05-03T13:39:58.626Z,0.98
2023-05-03T13:43:03.821Z,0.95
2023-05-03T13:46:09.085Z,0.80
2023-05-03T13:49:14.622Z,1.00
2023-05-03T13:52:20.179Z,1.00
2023-05-03T13:55:27.349Z,0.88
2023-05-03T13:58:32.828Z,1.13
2023-05-03T14:01:38.664Z,1.00
2023-05-03T14:04:44.025Z,1.20
2023-05-03T14:07:49.281Z,0.90
2023-05-03T14:10:56.084Z,1.10
2023-05-03T14:14:01.754Z,0.80
2023-05-03T14:17:08.340Z,1.40
2023-05-03T14:20:17.420Z,1.70
2023-05-03T14:23:24.408Z,1.20
2023-05-03T14:26:33.257Z,1.00
2023-05-03T14:29:38.376Z,0.80
2023-05-03T14:32:44.068Z,0.88
2023-05-03T14:35:49.211Z,0.90
2023-05-03T14:38:54.396Z,1.00
2023-05-03T14:42:00.924Z,0.82
2023-05-03T14:45:10.125Z,3.00
2023-05-03T14:48:17.646Z,0.80
2023-05-03T14:51:22.816Z,0.73
2023-05-03T14:54:28.097Z,1.10
2023-05-03T14:57:34.848Z,1.10
2023-05-03T15:00:40.594Z,1.02
2023-05-03T15:03:45.982Z,1.17
2023-05-03T15:06:51.329Z,0.90
2023-05-03T15:09:56.568Z,1.17
2023-05-03T15:13:03.495Z,0.93
2023-05-03T15:16:11.604Z,1.10
2023-05-03T15:19:16.707Z,1.10
2023-05-03T15:22:21.878Z,1.00
2023-05-03T15:25:27.187Z,0.90
2023-05-03T15:28:33.748Z,1.30
2023-05-03T15:31:39.266Z,1.30
2023-05-03T15:34:44.556Z,1.63
2023-05-03T15:37:49.681Z,1.20
2023-05-03T15:40:54.807Z,1.30
2023-05-03T15:44:05.216Z,1.10
2023-05-03T15:47:12.605Z,1.20
2023-05-03T15:50:17.725Z,1.50
2023-05-03T15:53:23.038Z,0.95
2023-05-03T15:56:29.172Z,1.33
2023-05-03T15:59:36.247Z,1.42
2023-05-03T16:02:42.254Z,1.10
2023-05-03T16:05:47.871Z,1.23
2023-05-03T16:08:53.015Z,1.00
2023-05-03T16:11:59.261Z,1.17
2023-05-03T16:15:07.729Z,1.20
2023-05-03T16:18:16.902Z,0.90
2023-05-03T16:21:22.030Z,1.10
2023-05-03T16:24:28.517Z,1.20
2023-05-03T16:27:33.604Z,1.30
2023-05-03T16:30:40.244Z,1.60
2023-05-03T16:33:45.348Z,1.80
2023-05-03T16:36:50.822Z,0.90
2023-05-03T16:39:56.045Z,1.00
2023-05-03T16:43:01.265Z,0.80
2023-05-03T16:46:08.201Z,1.00
2023-05-03T16:49:13.849Z,1.00
2023-05-03T16:52:19.006Z,1.10
2023-05-03T16:55:24.564Z,1.00
2023-05-03T16:58:29.641Z,1.35
2023-05-03T17:01:36.326Z,1.20
2023-05-03T17:04:42.256Z,1.40
2023-05-03T17:07:47.402Z,1.30
2023-05-03T17:10:54.379Z,1.50
2023-05-03T17:14:00.849Z,1.17
2023-05-03T17:17:07.596Z,1.13
2023-05-03T17:20:14.548Z,1.00
2023-05-03T17:23:20.587Z,1.08
2023-05-03T17:26:26.191Z,1.10
2023-05-03T17:29:31.677Z,1.42
2023-05-03T17:32:38.337Z,1.33
2023-05-03T17:35:43.514Z,1.20
2023-05-03T17:38:48.820Z,1.30
2023-05-03T17:41:54.002Z,1.40
2023-05-03T17:44:59.221Z,1.08
2023-05-03T17:48:06.056Z,1.10
2023-05-03T17:51:13.595Z,1.10
2023-05-03T17:54:20.245Z,1.10
2023-05-03T17:57:25.516Z,1.10
2023-05-03T18:00:31.003Z,0.90
2023-05-03T18:03:38.580Z,1.10
2023-05-03T18:06:44.180Z,1.10
2023-05-03T18:09:51.707Z,1.25
2023-05-03T18:12:56.908Z,1.20
2023-05-03T18:16:08.729Z,1.17
2023-05-03T18:19:15.967Z,1.08
2023-05-03T18:22:21.240Z,1.23
2023-05-03T18:25:26.393Z,1.00
2023-05-03T18:28:32.218Z,1.20
2023-05-03T18:31:37.759Z,1.23
2023-05-03T18:34:44.393Z,1.20
2023-05-03T18:37:49.556Z,1.60
2023-05-03T18:40:55.969Z,1.30
2023-05-03T18:44:01.910Z,1.30
2023-05-03T18:47:07.748Z,1.23
2023-05-03T18:50:21.136Z,1.23
2023-05-03T18:53:29.859Z,1.20
2023-05-03T18:56:34.954Z,1.60
2023-05-03T18:59:48.797Z,1.58
2023-05-03T19:03:02.410Z,1.20
2023-05-03T19:06:09.281Z,1.48
2023-05-03T19:09:15.482Z,1.10
2023-05-03T19:12:20.715Z,1.25
2023-05-03T19:15:25.953Z,1.63
2023-05-03T19:18:34.026Z,1.40
2023-05-03T19:21:42.481Z,3.17
2023-05-03T19:24:48.141Z,2.40
2023-05-03T19:27:53.242Z,2.42
2023-05-03T19:30:58.555Z,2.05
2023-05-03T19:34:04.428Z,1.65
2023-05-03T19:37:11.794Z,1.60
2023-05-03T19:40:16.995Z,2.00
2023-05-03T19:43:22.284Z,1.85
2023-05-03T19:46:28.840Z,1.75
2023-05-03T19:49:34.890Z,1.30
2023-05-03T19:52:42.092Z,1.63
2023-05-03T19:55:56.887Z,1.90
2023-05-03T19:59:01.978Z,1.60
2023-05-03T20:02:07.508Z,1.90
2023-05-03T20:05:12.831Z,1.73
2023-05-03T20:08:19.522Z,2.00
2023-05-03T20:11:24.657Z,1.60
2023-05-03T20:14:29.971Z,2.00
2023-05-03T20:17:35.194Z,1.80
2023-05-03T20:20:40.469Z,2.10
2023-05-03T20:23:49.063Z,2.30
2023-05-03T20:26:54.524Z,1.90
2023-05-03T20:29:59.748Z,1.80
2023-05-03T20:33:05.517Z,1.40
2023-05-03T20:36:14.612Z,1.60
2023-05-03T20:39:21.128Z,1.50
2023-05-03T20:42:26.402Z,2.17
2023-05-03T20:45:31.694Z,2.17
2023-05-03T20:48:36.922Z,2.03
2023-05-03T20:51:42.040Z,1.67
2023-05-03T20:54:48.513Z,1.90
2023-05-03T20:57:53.661Z,1.77
2023-05-03T21:00:58.763Z,1.63
2023-05-03T21:04:04.187Z,1.70
2023-05-03T21:07:09.325Z,1.90
2023-05-03T21:10:15.898Z,1.80
2023-05-03T21:13:21.419Z,2.20
2023-05-03T21:16:26.963Z,1.97
2023-05-03T21:19:32.016Z,1.73
2023-05-03T21:22:37.789Z,1.50
2023-05-03T21:25:44.432Z,1.83
2023-05-03T21:28:49.544Z,1.67
2023-05-03T21:31:54.701Z,1.90
2023-05-03T21:34:59.868Z,1.63
2023-05-03T21:38:05.052Z,1.43
2023-05-03T21:41:11.606Z,3.37
2023-05-03T21:44:16.683Z,1.93
2023-05-03T21:47:22.293Z,2.10
2023-05-03T21:50:27.533Z,1.80
2023-05-03T21:53:33.496Z,2.10
2023-05-03T21:56:39.922Z,2.23
2023-05-03T21:59:45.138Z,2.30
2023-05-03T22:02:50.337Z,2.83
2023-05-03T22:05:55.537Z,2.40
2023-05-03T22:09:00.926Z,2.03
2023-05-03T22:12:22.511Z,2.00
2023-05-03T22:15:28.465Z,1.77
2023-05-03T22:18:34.383Z,2.10
2023-05-03T22:21:39.404Z,2.00
2023-05-03T22:24:44.498Z,1.97
2023-05-03T22:27:51.174Z,1.80
2023-05-03T22:30:56.692Z,1.93
2023-05-03T22:34:01.781Z,1.50
2023-05-03T22:37:06.990Z,1.70
2023-05-03T22:40:13.191Z,1.30
2023-05-03T22:43:19.906Z,1.40
2023-05-03T22:46:25.164Z,1.57
2023-05-03T22:49:30.613Z,1.77
2023-05-03T22:52:35.942Z,2.67
2023-05-03T22:55:41.034Z,2.23
2023-05-03T22:58:48.894Z,3.10
2023-05-03T23:01:54.213Z,2.13
2023-05-03T23:04:59.335Z,2.20
2023-05-03T23:08:04.581Z,2.07
2023-05-03T23:11:09.659Z,2.07
2023-05-03T23:14:16.959Z,1.90
2023-05-03T23:17:22.480Z,1.77
2023-05-03T23:20:27.668Z,2.87
2023-05-03T23:23:32.727Z,2.80
2023-05-03T23:26:37.838Z,2.57
2023-05-03T23:29:45.126Z,1.90
2023-05-03T23:32:51.117Z,1.93
2023-05-03T23:35:56.861Z,2.70
2023-05-03T23:39:02.066Z,1.97
2023-05-03T23:42:07.351Z,2.10
2023-05-03T23:45:14.365Z,2.33
2023-05-03T23:48:19.428Z,2.73
2023-05-03T23:51:24.991Z,2.17
2023-05-03T23:54:30.142Z,1.70
2023-05-03T23:57:35.197Z,1.73
